Time;durP1;ratioP1;P1;durP2;ratioP2;P2;SDS_P1;SDS_P2;PMS_P1;PMS_P2;Temp;Humidity;BMP_temperature;BMP_pressure;BME280_temperature;BME280_humidity;BME280_pressure;Samples;Min_cycle;Max_cycle;Signal;HPM_P1;HPM_P2
2022/05/17 00:00:42;;;;;;;13.07;3.72;;;;;;;14.48;80.48;101945.00;4910741;29;20040;-76
2022/05/17 00:03:08;;;;;;;9.77;4.18;;;;;;;14.50;79.82;101951.09;4892874;29;20067;-75
2022/05/17 00:05:34;;;;;;;9.00;3.97;;;;;;;14.36;80.40;101945.72;4910602;29;20048;-76
2022/05/17 00:08:00;;;;;;;10.38;3.88;;;;;;;14.36;80.06;101941.22;4892648;29;20457;-76
2022/05/17 00:10:26;;;;;;;10.65;4.30;;;;;;;14.27;80.73;101946.28;4892836;29;20055;-75
2022/05/17 00:12:53;;;;;;;12.02;3.90;;;;;;;14.22;80.86;101942.06;4891202;29;20048;-76
2022/05/17 00:15:19;;;;;;;7.57;3.55;;;;;;;14.23;80.89;101940.25;4891651;29;20068;-75
2022/05/17 00:17:46;;;;;;;8.70;4.03;;;;;;;14.15;81.15;101938.00;4892902;29;20135;-76
2022/05/17 00:20:14;;;;;;;10.43;4.63;;;;;;;14.12;81.45;101940.03;4893078;29;20928;-75
2022/05/17 00:22:41;;;;;;;8.38;3.72;;;;;;;14.14;81.17;101933.59;4913374;29;20055;-75
2022/05/17 00:25:07;;;;;;;12.02;4.40;;;;;;;14.08;81.50;101936.66;4881743;29;20782;-75
2022/05/17 00:27:33;;;;;;;9.70;4.07;;;;;;;13.90;82.56;101932.41;4880191;29;20131;-75
2022/05/17 00:29:58;;;;;;;8.38;4.38;;;;;;;13.85;83.08;101937.16;4912955;29;20083;-75
2022/05/17 00:32:24;;;;;;;11.77;4.57;;;;;;;13.86;83.07;101941.59;4913735;29;20040;-76
2022/05/17 00:34:49;;;;;;;10.30;5.25;;;;;;;13.69;83.36;101927.34;4895457;29;20044;-75
2022/05/17 00:37:15;;;;;;;10.40;4.13;;;;;;;13.77;83.45;101932.28;4896418;29;20573;-75
2022/05/17 00:39:41;;;;;;;7.97;5.32;;;;;;;13.55;84.45;101937.16;4928159;29;20070;-75
2022/05/17 00:42:07;;;;;;;11.18;5.18;;;;;;;13.57;84.31;101929.91;4896017;29;20052;-75
2022/05/17 00:44:46;;;;;;;11.02;4.97;;;;;;;13.70;83.65;101925.53;4913575;29;20114;-75
2022/05/17 00:47:28;;;;;;;11.07;6.50;;;;;;;13.59;83.77;101925.31;4896100;29;20733;-76
2022/05/17 00:50:08;;;;;;;12.40;4.72;;;;;;;13.70;82.77;101926.44;4927442;29;20358;-75
2022/05/17 00:52:44;;;;;;;11.60;5.63;;;;;;;13.69;82.72;101922.00;4896339;29;20591;-75
2022/05/17 00:55:30;;;;;;;10.43;5.10;;;;;;;13.77;82.17;101932.28;4914081;29;20123;-76
2022/05/17 00:58:11;;;;;;;11.35;4.85;;;;;;;13.75;81.80;101926.13;4914685;29;20813;-76
2022/05/17 01:00:43;;;;;;;10.02;4.63;;;;;;;13.80;81.52;101934.75;4897293;29;20044;-76
2022/05/17 01:03:14;;;;;;;7.63;4.82;;;;;;;13.87;82.02;101928.09;4881937;29;20091;-76
2022/05/17 01:05:44;;;;;;;15.60;6.00;;;;;;;13.75;83.15;101931.50;4896969;29;20084;-75
2022/05/17 01:08:12;;;;;;;10.13;5.40;;;;;;;13.58;83.88;101924.44;4893999;29;20065;-76
2022/05/17 01:10:37;;;;;;;12.70;5.63;;;;;;;13.42;84.08;101920.94;4896216;29;20052;-76
2022/05/17 01:15:47;;;;;;;10.85;5.45;;;;;;;13.46;83.50;101919.81;4896558;29;20052;-76
2022/05/17 01:18:14;;;;;;;10.38;4.82;;;;;;;13.45;82.96;101921.66;4895452;29;20102;-76
2022/05/17 01:20:40;;;;;;;10.98;5.10;;;;;;;13.57;82.70;101922.72;4895192;29;20048;-75
2022/05/17 01:23:06;;;;;;;13.30;5.53;;;;;;;13.61;82.35;101924.28;4896836;29;20044;-76
2022/05/17 01:25:33;;;;;;;11.18;5.70;;;;;;;13.49;82.81;101919.63;4894029;29;20455;-76
2022/05/17 01:28:09;;;;;;;9.38;5.65;;;;;;;13.52;82.43;101916.78;4896268;29;20112;-75
2022/05/17 01:30:36;;;;;;;10.70;5.30;;;;;;;13.51;82.51;101917.75;4896165;29;20064;-75
2022/05/17 01:33:03;;;;;;;9.40;5.82;;;;;;;13.46;83.03;101917.16;4893115;29;20044;-76
2022/05/17 01:35:28;;;;;;;12.82;5.90;;;;;;;13.38;83.42;101920.25;4893736;29;20036;-75
2022/05/17 01:37:59;;;;;;;12.93;5.75;;;;;;;13.32;83.24;101917.06;4893614;29;20040;-76
2022/05/17 01:40:26;;;;;;;11.05;5.07;;;;;;;13.32;82.75;101920.63;4894043;29;20091;-75
2022/05/17 01:42:52;;;;;;;13.48;6.32;;;;;;;13.37;82.90;101918.53;4893450;29;20037;-76
2022/05/17 01:45:18;;;;;;;14.20;6.10;;;;;;;13.39;83.49;101915.75;4894920;29;20069;-76
2022/05/17 01:47:44;;;;;;;11.65;6.18;;;;;;;13.46;83.13;101917.16;4892296;29;20048;-76
2022/05/17 01:50:09;;;;;;;9.55;5.43;;;;;;;13.53;82.84;101913.13;4894169;29;20539;-75
2022/05/17 01:52:36;;;;;;;11.05;5.25;;;;;;;13.58;82.08;101919.09;4893863;29;20055;-75
2022/05/17 01:55:02;;;;;;;11.95;6.07;;;;;;;13.57;82.98;101914.69;4893780;29;20059;-76
2022/05/17 01:57:28;;;;;;;7.75;5.10;;;;;;;13.69;82.45;101915.78;4893704;29;20033;-75
2022/05/17 01:59:53;;;;;;;13.07;6.10;;;;;;;13.56;83.32;101918.34;4893845;29;20048;-75
2022/05/17 02:02:18;;;;;;;8.85;5.25;;;;;;;13.61;82.90;101915.38;4893859;29;20044;-75
2022/05/17 02:04:44;;;;;;;11.23;5.85;;;;;;;13.60;82.87;101919.84;4892595;29;20045;-75
2022/05/17 02:07:09;;;;;;;9.18;5.70;;;;;;;13.50;83.10;101921.34;4894789;29;20135;-75
2022/05/17 02:09:35;;;;;;;8.45;4.70;;;;;;;13.54;82.92;101908.66;4910245;29;20139;-76
2022/05/17 02:12:02;;;;;;;10.18;5.85;;;;;;;13.54;83.58;101919.38;4876525;29;20048;-75
2022/05/17 02:14:28;;;;;;;7.90;5.35;;;;;;;13.52;83.52;101908.75;4894112;29;20139;-77
2022/05/17 02:16:54;;;;;;;11.27;5.30;;;;;;;13.51;83.28;101908.84;4878114;29;20123;-75
2022/05/17 02:19:20;;;;;;;13.18;5.90;;;;;;;13.35;84.18;101917.75;4877954;29;20036;-76
2022/05/17 02:21:49;;;;;;;13.27;5.45;;;;;;;13.30;83.75;101918.97;4893680;29;20052;-75
2022/05/17 02:24:15;;;;;;;7.78;5.13;;;;;;;13.10;83.38;101926.31;4893679;29;20045;-76
2022/05/17 02:26:41;;;;;;;10.80;4.95;;;;;;;13.22;83.39;101924.78;4876256;29;20778;-76
2022/05/17 02:29:06;;;;;;;11.93;5.55;;;;;;;13.26;83.71;101930.81;4894187;29;20040;-75
2022/05/17 02:31:31;;;;;;;10.80;6.22;;;;;;;13.28;83.74;101931.59;4894303;29;20036;-75
2022/05/17 02:33:57;;;;;;;10.57;5.55;;;;;;;13.26;83.79;101933.50;4894664;29;20780;-75
2022/05/17 02:36:22;;;;;;;9.93;5.60;;;;;;;13.25;84.04;101935.28;4876649;29;20079;-75
2022/05/17 02:38:49;;;;;;;8.00;5.22;;;;;;;13.34;84.05;101928.56;4894342;29;20131;-75
2022/05/17 02:41:17;;;;;;;10.35;4.78;;;;;;;13.46;83.30;101931.41;4899217;29;20564;-76
2022/05/17 02:43:47;;;;;;;8.45;5.40;;;;;;;13.54;83.47;101930.94;4911572;29;20055;-75
2022/05/17 02:46:14;;;;;;;7.18;5.18;;;;;;;13.35;83.74;101938.31;4894596;29;20130;-75
2022/05/17 02:48:39;;;;;;;11.73;4.72;;;;;;;13.26;83.81;101942.41;4911746;29;20073;-75
2022/05/17 02:51:10;;;;;;;9.93;5.25;;;;;;;13.33;84.05;101946.44;4911601;29;20048;-76
2022/05/17 02:53:36;;;;;;;20.73;7.32;;;;;;;13.34;83.94;101937.44;4894904;29;20046;-75
2022/05/17 02:56:03;;;;;;;10.10;5.60;;;;;;;13.36;83.58;101940.06;4895662;29;20102;-76
2022/05/17 02:58:29;;;;;;;8.70;5.38;;;;;;;13.36;84.01;101943.59;4912584;29;20052;-75
2022/05/17 03:00:54;;;;;;;11.60;6.00;;;;;;;13.40;84.02;101945.16;4912805;29;20055;-75
2022/05/17 03:03:20;;;;;;;9.88;5.68;;;;;;;13.38;84.56;101952.41;4880312;29;20051;-76
2022/05/17 03:05:45;;;;;;;11.15;6.28;;;;;;;13.33;84.85;101946.44;4912704;29;20055;-76
2022/05/17 03:08:12;;;;;;;9.95;5.72;;;;;;;13.36;84.58;101959.69;4912349;29;20059;-75
2022/05/17 03:10:37;;;;;;;8.85;5.95;;;;;;;13.45;84.34;101943.09;4912512;29;20040;-77
2022/05/17 03:13:03;;;;;;;10.98;5.65;;;;;;;13.41;84.73;101943.34;4912580;29;20044;-75
2022/05/17 03:15:29;;;;;;;12.85;6.25;;;;;;;13.38;84.81;101943.50;4912250;29;20079;-75
2022/05/17 03:17:54;;;;;;;10.98;5.55;;;;;;;13.38;84.90;101949.72;4912323;29;20083;-74
2022/05/17 03:20:19;;;;;;;9.98;5.95;;;;;;;13.37;85.06;101955.19;4911913;29;20127;-75
2022/05/17 03:22:46;;;;;;;12.40;5.38;;;;;;;13.33;84.55;101954.47;4895282;29;20051;-75
2022/05/17 03:25:12;;;;;;;12.90;5.80;;;;;;;13.28;84.85;101953.88;4913305;29;20583;-75
2022/05/17 03:27:37;;;;;;;9.75;5.50;;;;;;;13.26;84.75;101962.97;4894447;29;20047;-75
2022/05/17 03:30:04;;;;;;;7.75;4.43;;;;;;;13.11;84.14;101962.00;4913052;29;20051;-76
2022/05/17 03:32:30;;;;;;;10.27;5.15;;;;;;;13.09;84.51;101964.72;4896417;29;20044;-76
2022/05/17 03:34:55;;;;;;;12.27;6.10;;;;;;;13.00;84.88;101961.69;4896782;29;20044;-75
2022/05/17 03:37:20;;;;;;;10.70;6.00;;;;;;;12.91;85.32;101969.31;4913062;29;20055;-78
2022/05/17 03:39:46;;;;;;;10.95;5.90;;;;;;;12.88;85.77;101971.28;4914213;29;20040;-75
2022/05/17 03:42:13;;;;;;;11.18;5.53;;;;;;;12.88;85.87;101973.97;4896621;29;20040;-76
2022/05/17 03:44:40;;;;;;;15.93;7.00;;;;;;;13.01;86.17;101975.03;4914772;29;20051;-76
2022/05/17 03:47:07;;;;;;;12.55;7.18;;;;;;;13.04;86.05;101964.13;4895569;29;20088;-76
2022/05/17 03:49:36;;;;;;;12.23;7.25;;;;;;;13.08;86.89;101972.84;4913411;29;20118;-75
2022/05/17 03:52:02;;;;;;;13.00;7.10;;;;;;;13.00;86.44;101973.28;4913543;29;20084;-75
2022/05/17 03:54:28;;;;;;;17.60;7.97;;;;;;;13.24;85.67;101968.41;4913807;29;20647;-75
2022/05/17 03:56:53;;;;;;;14.07;7.22;;;;;;;13.35;85.16;101962.41;4916718;29;20123;-75
2022/05/17 03:59:19;;;;;;;13.13;7.45;;;;;;;13.47;84.26;101976.00;4902680;29;20112;-75
2022/05/17 04:01:44;;;;;;;12.20;7.70;;;;;;;13.50;84.34;101972.25;4887493;29;20482;-75
2022/05/17 04:04:14;;;;;;;14.90;7.40;;;;;;;13.59;83.92;101973.56;4919453;29;20036;-76
2022/05/17 04:06:40;;;;;;;12.00;6.15;;;;;;;13.70;83.77;101969.31;4886002;29;20486;-75
2022/05/17 04:09:05;;;;;;;18.05;7.95;;;;;;;13.88;83.22;101978.09;4901106;29;20084;-75
2022/05/17 04:11:33;;;;;;;13.75;7.20;;;;;;;14.03;82.85;101979.00;4918991;29;20127;-75
2022/05/17 04:13:58;;;;;;;13.18;6.85;;;;;;;14.12;82.54;101966.84;4902823;29;20044;-76
2022/05/17 04:16:24;;;;;;;12.70;6.63;;;;;;;14.12;82.59;101972.22;4919905;29;20036;-75
2022/05/17 04:18:50;;;;;;;17.90;5.93;;;;;;;14.17;82.13;101968.31;4919668;29;20063;-75
2022/05/17 04:21:16;;;;;;;10.98;6.13;;;;;;;14.42;81.44;101967.66;4903425;29;20417;-75
2022/05/17 04:23:41;;;;;;;12.63;6.53;;;;;;;14.60;80.67;101970.19;4918930;29;20048;-76
2022/05/17 04:26:07;;;;;;;10.85;6.72;;;;;;;14.68;80.91;101976.81;4919252;29;20882;-77
2022/05/17 04:28:32;;;;;;;18.70;8.43;;;;;;;14.82;80.80;101972.41;4886157;29;20040;-75
2022/05/17 04:30:58;;;;;;;13.48;7.38;;;;;;;14.94;80.57;101972.47;4919715;29;20489;-75
2022/05/17 04:33:24;;;;;;;12.95;6.88;;;;;;;15.11;80.36;101978.59;4920402;29;20072;-76
2022/05/17 04:35:49;;;;;;;14.95;6.68;;;;;;;15.33;79.59;101978.09;4900823;29;20043;-75
2022/05/17 04:38:16;;;;;;;12.23;7.00;;;;;;;15.30;79.71;101976.44;4902139;29;20883;-75
2022/05/17 04:40:44;;;;;;;17.35;6.90;;;;;;;15.37;79.83;101974.25;4918168;29;20143;-75
2022/05/17 04:43:10;;;;;;;13.43;6.85;;;;;;;15.18;80.02;101972.75;4900579;29;20096;-75
2022/05/17 04:45:36;;;;;;;12.75;7.72;;;;;;;15.32;80.41;101974.53;4879417;29;20040;-75
2022/05/17 04:48:02;;;;;;;17.48;7.88;;;;;;;15.54;79.14;101984.75;4890229;29;20051;-76
2022/05/17 04:50:28;;;;;;;12.38;7.15;;;;;;;15.46;79.35;101987.06;4883709;29;20048;-76
2022/05/17 04:52:54;;;;;;;15.75;8.13;;;;;;;15.46;79.91;101985.25;4896308;29;20056;-75
2022/05/17 04:55:21;;;;;;;13.48;8.30;;;;;;;15.34;79.87;101990.56;4896189;29;20052;-76
2022/05/17 04:57:47;;;;;;;16.33;7.70;;;;;;;15.29;81.98;101985.47;4897803;29;20052;-76
2022/05/17 05:00:19;;;;;;;12.35;7.28;;;;;;;15.38;80.68;101984.88;4865142;29;20045;-76
2022/05/17 05:02:45;;;;;;;15.25;8.20;;;;;;;15.51;79.84;101993.88;4899150;29;20047;-75
2022/05/17 05:05:12;;;;;;;12.02;7.00;;;;;;;15.77;78.81;101988.63;4883557;29;20052;-75
2022/05/17 05:07:37;;;;;;;12.02;7.93;;;;;;;15.50;80.25;101989.44;4915565;29;20048;-76
2022/05/17 05:10:03;;;;;;;13.18;7.60;;;;;;;15.65;79.40;101992.13;4916106;29;20060;-74
2022/05/17 05:12:30;;;;;;;13.95;7.15;;;;;;;15.73;78.84;101987.13;4913135;29;20131;-75
2022/05/17 05:14:57;;;;;;;9.57;7.50;;;;;;;15.97;78.46;101984.59;4915919;29;20478;-75
2022/05/17 05:17:22;;;;;;;19.00;8.02;;;;;;;15.98;78.08;101991.69;4899752;29;20115;-75
2022/05/17 05:19:48;;;;;;;10.95;7.65;;;;;;;16.16;78.39;101994.94;4899599;29;20040;-74
2022/05/17 05:22:13;;;;;;;14.35;7.88;;;;;;;16.31;78.79;101999.28;4909878;29;20846;-75
2022/05/17 05:24:39;;;;;;;10.77;6.72;;;;;;;16.31;78.91;102000.16;4913810;29;20127;-75
2022/05/17 05:27:05;;;;;;;16.02;7.43;;;;;;;16.54;78.26;102001.25;4893720;29;20044;-75
2022/05/17 05:29:31;;;;;;;18.20;7.13;;;;;;;16.73;77.82;101992.78;4914166;29;20111;-76
2022/05/17 05:31:56;;;;;;;11.27;7.80;;;;;;;17.00;76.81;101997.16;4873868;29;20044;-75
2022/05/17 05:34:21;;;;;;;13.23;7.53;;;;;;;17.22;76.26;101993.75;4896504;29;20052;-74
2022/05/17 05:36:47;;;;;;;13.07;8.65;;;;;;;17.43;75.47;101997.59;4914642;29;20032;-75
2022/05/17 05:39:16;;;;;;;12.02;7.53;;;;;;;17.49;75.66;101998.97;4894731;29;20115;-75
2022/05/17 05:41:43;;;;;;;12.10;7.43;;;;;;;17.90;74.77;102001.28;4890425;29;20150;-75
2022/05/17 05:44:08;;;;;;;12.27;7.18;;;;;;;18.28;72.99;101998.38;4912367;29;20115;-75
2022/05/17 05:46:33;;;;;;;13.00;7.10;;;;;;;18.51;73.09;101996.56;4888363;29;20040;-75
2022/05/17 05:48:59;;;;;;;13.18;6.82;;;;;;;18.24;73.82;102001.41;4884208;29;20049;-75
2022/05/17 05:51:24;;;;;;;15.43;7.43;;;;;;;18.15;74.29;102005.69;4905474;29;20048;-75
2022/05/17 05:53:50;;;;;;;12.43;7.03;;;;;;;18.46;72.41;102009.56;4891738;29;20039;-75
2022/05/17 05:56:16;;;;;;;12.57;7.70;;;;;;;18.61;71.33;102008.34;4882339;29;20032;-75
2022/05/17 05:58:43;;;;;;;18.80;6.75;;;;;;;18.78;70.86;102014.31;4901166;29;20036;-75
2022/05/17 06:01:08;;;;;;;11.73;7.00;;;;;;;18.83;70.63;102012.13;4910015;29;20050;-75
2022/05/17 06:03:35;;;;;;;18.52;7.28;;;;;;;18.78;70.63;102015.19;4895739;29;20464;-75
2022/05/17 06:06:02;;;;;;;14.85;7.32;;;;;;;18.72;72.06;102021.03;4913246;29;20063;-75
2022/05/17 06:08:28;;;;;;;10.68;6.45;;;;;;;18.69;71.65;102023.16;4889528;29;20155;-74
2022/05/17 06:10:56;;;;;;;13.23;6.57;;;;;;;18.69;70.42;102028.56;4870972;29;20036;-75
2022/05/17 06:13:22;;;;;;;12.77;6.63;;;;;;;18.70;69.75;102031.13;4872062;29;20108;-75
2022/05/17 06:15:50;;;;;;;11.93;5.72;;;;;;;18.39;70.00;102035.34;4880123;29;20722;-75
2022/05/17 06:18:16;;;;;;;21.20;6.07;;;;;;;18.47;70.91;102040.13;4894983;29;20048;-75
2022/05/17 06:20:47;;;;;;;17.95;6.72;;;;;;;18.56;70.53;102031.31;4914226;29;20040;-75
2022/05/17 06:23:13;;;;;;;14.07;6.97;;;;;;;18.60;69.78;102032.81;4915843;29;20043;-75
2022/05/17 06:25:39;;;;;;;11.43;5.90;;;;;;;18.67;69.77;102031.31;4900086;29;20131;-74
2022/05/17 06:28:04;;;;;;;14.43;5.57;;;;;;;18.62;69.78;102029.00;4916605;29;20051;-75
2022/05/17 06:30:30;;;;;;;10.77;5.40;;;;;;;18.32;69.44;102034.97;4917661;29;20039;-75
2022/05/17 06:32:55;;;;;;;14.10;6.68;;;;;;;18.44;70.56;102030.44;4898166;29;20039;-74
2022/05/17 06:35:21;;;;;;;9.68;5.78;;;;;;;18.26;69.67;102031.84;4892172;29;20040;-74
2022/05/17 06:37:46;;;;;;;10.23;6.35;;;;;;;18.32;70.37;102034.97;4921111;29;20024;-76
2022/05/17 06:40:13;;;;;;;14.90;5.38;;;;;;;18.70;69.18;102038.38;4932664;29;20039;-78
2022/05/17 06:42:39;;;;;;;16.67;5.90;;;;;;;18.66;68.49;102029.59;4925476;29;20052;-75
2022/05/17 06:45:07;;;;;;;11.35;6.35;;;;;;;18.84;68.07;102041.72;4937395;29;20039;-75
2022/05/17 06:47:32;;;;;;;10.77;6.13;;;;;;;19.00;67.01;102044.06;4937007;29;20094;-75
2022/05/17 06:49:57;;;;;;;12.95;6.07;;;;;;;18.93;66.48;102050.94;4917530;29;20379;-75
2022/05/17 06:52:24;;;;;;;8.13;5.57;;;;;;;18.90;67.85;102051.19;4928942;29;20047;-75
2022/05/17 06:54:49;;;;;;;10.27;5.80;;;;;;;18.89;67.08;102050.31;4919204;29;20055;-75
2022/05/17 06:57:16;;;;;;;16.63;6.05;;;;;;;19.08;66.18;102059.69;4937328;29;20065;-75
2022/05/17 06:59:43;;;;;;;10.70;5.45;;;;;;;19.21;66.59;102048.72;4933872;29;20115;-75
2022/05/17 07:02:09;;;;;;;13.73;6.97;;;;;;;19.48;65.48;102049.19;4899558;29;20487;-75
2022/05/17 07:04:35;;;;;;;12.65;5.72;;;;;;;19.79;63.75;102044.84;4931539;29;20047;-76
2022/05/17 07:07:03;;;;;;;9.52;4.60;;;;;;;20.13;61.73;102045.59;4914534;29;20047;-75
2022/05/17 07:09:29;;;;;;;11.30;5.38;;;;;;;21.01;60.99;102040.75;4929703;29;20059;-75
2022/05/17 07:14:39;;;;;;;8.25;5.35;;;;;;;21.49;58.16;102040.97;4928464;29;20067;-76
2022/05/17 07:17:16;;;;;;;10.70;5.63;;;;;;;21.82;58.88;102039.72;4931930;29;20048;-75
2022/05/17 07:19:48;;;;;;;6.82;4.30;;;;;;;21.98;56.73;102042.72;4914271;29;20056;-75
2022/05/17 07:22:14;;;;;;;7.28;4.95;;;;;;;22.23;54.80;102037.75;4918074;29;20035;-76
2022/05/17 07:24:44;;;;;;;10.98;4.43;;;;;;;22.64;54.62;102041.13;4907825;29;20489;-76
2022/05/17 07:27:10;;;;;;;8.82;3.55;;;;;;;22.87;53.88;102050.66;4922171;29;20039;-76
2022/05/17 07:29:35;;;;;;;8.95;4.03;;;;;;;21.73;55.38;102056.84;4885896;29;20044;-76
2022/05/17 07:32:02;;;;;;;8.43;4.20;;;;;;;21.30;56.55;102058.03;4893057;29;20045;-76
2022/05/17 07:34:28;;;;;;;6.32;4.05;;;;;;;21.28;56.07;102064.56;4863001;29;20045;-76
2022/05/17 07:36:54;;;;;;;7.75;4.00;;;;;;;21.21;55.47;102062.38;4894134;29;20048;-76
2022/05/17 07:39:19;;;;;;;12.05;4.60;;;;;;;21.24;56.56;102064.00;4901673;29;20039;-75
2022/05/17 07:41:45;;;;;;;10.23;4.55;;;;;;;20.60;59.20;102067.78;4913379;29;20481;-76
2022/05/17 07:44:11;;;;;;;8.68;3.47;;;;;;;20.55;58.46;102072.75;4916993;29;20349;-76
2022/05/17 07:46:37;;;;;;;10.52;4.55;;;;;;;20.55;59.87;102080.00;4909163;29;20043;-76
2022/05/17 07:49:02;;;;;;;8.68;5.07;;;;;;;20.47;59.53;102079.81;4876550;29;20104;-76
2022/05/17 07:51:29;;;;;;;10.50;4.82;;;;;;;20.07;60.45;102086.72;4887333;29;20114;-76
2022/05/17 07:53:55;;;;;;;8.63;4.07;;;;;;;19.90;61.91;102092.69;4931201;29;20043;-76
2022/05/17 07:56:20;;;;;;;11.48;5.57;;;;;;;19.95;60.84;102092.31;4931696;29;20047;-75
2022/05/17 07:58:46;;;;;;;11.98;5.43;;;;;;;20.27;60.58;102092.28;4913653;29;20043;-76
2022/05/17 08:01:12;;;;;;;9.43;4.50;;;;;;;20.54;62.14;102086.44;4898709;29;20032;-76
2022/05/17 08:03:38;;;;;;;10.80;4.47;;;;;;;20.09;60.84;102092.88;4912310;29;20095;-76
2022/05/17 08:06:05;;;;;;;8.55;4.18;;;;;;;19.79;61.75;102099.00;4929946;29;20043;-76
2022/05/17 08:08:31;;;;;;;8.45;4.72;;;;;;;19.79;61.91;102092.72;4863646;29;20071;-76
2022/05/17 08:10:56;;;;;;;9.70;4.68;;;;;;;19.84;62.45;102099.47;4919191;29;20071;-76
2022/05/17 08:13:23;;;;;;;9.88;4.70;;;;;;;19.85;62.84;102100.31;4914914;23;20113;-69
2022/05/17 08:15:50;;;;;;;12.55;4.38;;;;;;;20.06;63.61;102106.66;4915109;29;20059;-69
2022/05/17 08:18:17;;;;;;;8.45;5.00;;;;;;;19.91;60.90;102099.81;4918828;29;20036;-69
2022/05/17 08:20:42;;;;;;;9.25;4.65;;;;;;;19.99;62.82;102099.19;4931849;29;20043;-69
2022/05/17 08:23:08;;;;;;;14.48;4.57;;;;;;;19.82;62.17;102108.69;4924021;29;20035;-68
2022/05/17 08:28:17;;;;;;;9.40;4.88;;;;;;;19.83;63.48;102102.28;4930706;29;20631;-69
2022/05/17 08:30:43;;;;;;;9.70;4.43;;;;;;;19.79;62.89;102108.97;4920160;29;20028;-69
2022/05/17 08:33:15;;;;;;;8.65;4.57;;;;;;;19.81;62.96;102101.56;4931748;29;20071;-69
2022/05/17 08:36:05;;;;;;;14.02;4.43;;;;;;;19.81;61.89;102104.25;4924131;29;20626;-69
2022/05/17 08:38:33;;;;;;;9.38;3.90;;;;;;;19.72;62.78;102102.31;4921480;29;20040;-70
2022/05/17 08:41:11;;;;;;;9.07;3.95;;;;;;;19.64;62.04;102100.25;4932180;29;20047;-70
2022/05/17 08:43:55;;;;;;;5.55;3.45;;;;;;;19.94;60.98;102101.41;4921592;29;20178;-70
2022/05/17 08:46:28;;;;;;;5.25;3.45;;;;;;;19.85;64.19;102092.19;4922423;29;20039;-70
2022/05/17 08:48:55;;;;;;;8.88;4.20;;;;;;;19.98;60.16;102092.03;4919295;29;20082;-70
2022/05/17 08:51:53;;;;;;;10.80;4.07;;;;;;;20.25;61.67;102078.91;4930462;29;20095;-70
2022/05/17 08:54:25;;;;;;;7.28;4.20;;;;;;;20.48;60.10;102079.66;4923170;29;20832;-70
2022/05/17 08:57:12;;;;;;;13.07;4.07;;;;;;;20.42;59.06;102070.19;4910567;29;20449;-70
2022/05/17 08:59:38;;;;;;;8.63;4.07;;;;;;;20.37;62.06;102069.72;4922611;29;20477;-70
2022/05/17 09:02:06;;;;;;;10.13;4.05;;;;;;;20.40;59.74;102074.88;4922839;29;20039;-70
2022/05/17 09:04:43;;;;;;;6.85;3.28;;;;;;;20.54;59.79;102073.75;4929499;29;20071;-69
2022/05/17 09:07:18;;;;;;;7.75;3.88;;;;;;;20.71;59.45;102074.97;4917851;29;20044;-69
2022/05/17 09:09:58;;;;;;;7.88;3.78;;;;;;;20.39;60.45;102078.59;4909092;29;20744;-69
2022/05/17 09:12:36;;;;;;;9.25;4.03;;;;;;;20.48;61.46;102079.66;4913195;29;20400;-69
2022/05/17 09:15:04;;;;;;;6.50;3.90;;;;;;;20.74;59.06;102073.88;4930890;29;20142;-69
2022/05/17 09:17:30;;;;;;;10.13;4.05;;;;;;;21.03;58.66;102082.16;4918457;29;20129;-69
2022/05/17 09:19:55;;;;;;;8.75;3.80;;;;;;;20.93;57.80;102087.50;4914278;29;20793;-69
2022/05/17 09:22:22;;;;;;;10.38;4.28;;;;;;;20.69;57.61;102090.53;4913789;29;20047;-70
2022/05/17 09:25:00;;;;;;;11.52;4.07;;;;;;;20.98;56.83;102087.13;4914156;29;20138;-69
2022/05/17 09:27:39;;;;;;;13.70;3.90;;;;;;;20.87;56.69;102093.47;4886966;29;20068;-69
2022/05/17 09:30:26;;;;;;;8.25;3.83;;;;;;;21.27;54.99;102095.41;4926540;29;20071;-69
2022/05/17 09:33:14;;;;;;;8.95;3.65;;;;;;;21.64;56.08;102098.44;4916567;29;20039;-69
2022/05/17 09:35:59;;;;;;;10.02;4.03;;;;;;;21.61;57.16;102099.56;4913812;29;20043;-69
2022/05/17 09:38:30;;;;;;;5.38;3.70;;;;;;;21.65;55.26;102103.72;4926048;29;20044;-70
2022/05/17 09:40:56;;;;;;;5.95;2.70;;;;;;;21.71;55.58;102103.16;4917633;29;20039;-69
2022/05/17 09:43:49;;;;;;;6.55;2.65;;;;;;;21.43;55.08;102093.06;4927149;29;20039;-69
2022/05/17 09:46:34;;;;;;;9.18;3.55;;;;;;;21.76;53.44;102094.59;4896458;29;20050;-70
2022/05/17 09:54:39;;;;;;;9.95;2.67;;;;;;;22.02;53.63;102089.50;4920260;28;20347;-70
2022/05/17 09:57:17;;;;;;;5.95;3.50;;;;;;;21.93;54.48;102093.06;4914270;29;20074;-69
2022/05/17 09:59:44;;;;;;;7.93;2.65;;;;;;;22.15;53.47;102095.56;4905420;29;20054;-70
2022/05/17 10:02:32;;;;;;;11.38;3.58;;;;;;;21.78;54.70;102092.59;4922303;29;20040;-70
2022/05/17 10:05:11;;;;;;;8.88;3.65;;;;;;;21.88;54.01;102085.31;4919864;29;20134;-69
2022/05/17 10:07:38;;;;;;;8.00;4.13;;;;;;;21.54;55.68;102090.28;4914556;29;20138;-69
2022/05/17 10:10:24;;;;;;;8.95;4.03;;;;;;;21.28;58.40;102092.53;4925321;29;20078;-70
2022/05/17 10:12:56;;;;;;;9.98;4.13;;;;;;;21.31;57.03;102086.88;4896085;29;20115;-69
2022/05/17 10:15:22;;;;;;;10.32;3.90;;;;;;;20.97;58.05;102086.25;4903699;29;20382;-69
2022/05/17 10:18:03;;;;;;;8.93;4.07;;;;;;;20.97;59.94;102078.13;4925863;29;20036;-69
2022/05/17 10:20:37;;;;;;;6.75;2.60;;;;;;;20.88;58.60;102087.06;4916313;29;20044;-69
2022/05/17 10:23:17;;;;;;;8.55;2.30;;;;;;;20.77;58.70;102081.72;4898507;29;20066;-69
2022/05/17 10:25:48;;;;;;;6.90;2.70;;;;;;;20.87;58.09;102078.06;4915891;29;20154;-69
2022/05/17 10:28:38;;;;;;;8.23;2.33;;;;;;;21.70;56.23;102084.31;4917185;29;20127;-69
2022/05/17 10:31:40;;;;;;;8.15;2.88;;;;;;;21.50;56.44;102082.53;4916548;29;20159;-69
2022/05/17 10:34:43;;;;;;;6.70;3.03;;;;;;;22.49;54.30;102076.97;4907771;29;20054;-69
2022/05/17 10:37:19;;;;;;;6.47;2.38;;;;;;;23.02;51.69;102075.56;4918152;29;20126;-69
2022/05/17 10:39:53;;;;;;;5.28;2.88;;;;;;;22.68;51.59;102067.88;4914940;29;20039;-69
2022/05/17 10:42:20;;;;;;;6.18;2.67;;;;;;;22.75;52.64;102073.63;4906056;29;20751;-69
2022/05/17 10:44:53;;;;;;;7.45;2.78;;;;;;;22.58;53.86;102064.31;4914916;29;20036;-69
2022/05/17 10:47:55;;;;;;;8.95;3.22;;;;;;;22.93;54.49;102076.44;4919019;29;20052;-69
2022/05/17 10:50:42;;;;;;;5.00;2.50;;;;;;;23.27;51.46;102071.31;4905464;29;20380;-69
2022/05/17 10:53:17;;;;;;;8.00;3.35;;;;;;;24.09;49.69;102059.50;4925575;29;20855;-69
2022/05/17 10:55:55;;;;;;;9.43;3.67;;;;;;;23.55;49.17;102053.13;4903805;29;20070;-70
2022/05/17 10:58:26;;;;;;;7.07;3.40;;;;;;;23.75;50.81;102049.31;4911765;29;20091;-70
2022/05/17 11:01:02;;;;;;;5.67;2.80;;;;;;;24.11;49.45;102043.84;4911262;29;20043;-69
2022/05/17 11:04:01;;;;;;;7.00;4.20;;;;;;;23.88;50.35;102048.91;4927534;29;20842;-69
2022/05/17 11:06:35;;;;;;;7.65;4.13;;;;;;;24.67;49.98;102037.16;4901942;29;20071;-68
2022/05/17 11:09:14;;;;;;;11.07;3.90;;;;;;;24.43;49.82;102042.44;4915094;29;20063;-69
2022/05/17 11:12:05;;;;;;;6.15;3.55;;;;;;;23.51;52.40;102036.22;4920189;29;20028;-69
2022/05/17 11:14:43;;;;;;;6.20;3.83;;;;;;;23.98;50.31;102029.75;4896227;29;20047;-69
2022/05/17 11:17:34;;;;;;;5.18;2.63;;;;;;;24.14;49.75;102026.31;4924123;29;20154;-69
2022/05/17 11:20:10;;;;;;;7.77;3.30;;;;;;;23.91;48.27;102029.53;4924563;29;20047;-70
2022/05/17 11:22:45;;;;;;;4.68;2.55;;;;;;;23.90;48.96;102032.44;4917108;29;20110;-69
2022/05/17 11:25:37;;;;;;;4.70;3.13;;;;;;;23.49;49.57;102038.25;4912598;29;20046;-69
2022/05/17 11:28:19;;;;;;;5.75;3.13;;;;;;;23.38;49.20;102030.28;4890976;29;20877;-68
2022/05/17 11:31:00;;;;;;;5.30;2.70;;;;;;;23.66;48.49;102024.84;4914165;29;20055;-68
2022/05/17 11:33:35;;;;;;;7.78;2.92;;;;;;;23.87;48.61;102019.09;4885396;29;20054;-68
2022/05/17 11:36:05;;;;;;;6.55;3.17;;;;;;;23.64;49.00;102015.97;4888689;29;20076;-70
2022/05/17 11:38:37;;;;;;;7.18;3.50;;;;;;;24.05;49.71;102014.50;4908860;29;20782;-69
2022/05/17 11:41:40;;;;;;;7.78;2.97;;;;;;;23.45;49.45;102016.94;4906931;29;20040;-69
2022/05/17 11:44:14;;;;;;;5.25;2.80;;;;;;;23.70;48.73;102018.09;4910343;29;20102;-69